Rosemont, Pennsylvania
Current Conditions -  °F | °C
As of 8:35 PM on Tuesday 27 Jan 2015 (Local Time) from KLOM Reporting Station
Clear Clear  
Wind Chill: 22°   Ceiling: Unl
Heat Index: 28°   Visibility: 10mi
Dew Point:   Wind: 6mph
Humidity: 43%   Direction: 330°NNW
Pressure: 29.82"   Gusts: NA
Location:  40.0226°N, 75.3301°W
Report Text: KLOM 280135Z AUTO 33005KT 10SM CLR M02/M13 A2982 RMK AO1
Loading
Personal Weather Stations






























Interactive Weather Map New forecast layout! Learn more

10-Day Weather Forecast

Advertisements
Track Severe Weather on mobile